sensor_id;sensor_type;location;lat;lon;timestamp;P1;durP1;ratioP1;P2;durP2;ratioP2
71207;SDS011;58938;49.868;8.646;2022-10-16T00:01:19;5.28;;;2.85;;
71207;SDS011;58938;49.868;8.646;2022-10-16T00:03:47;4.95;;;2.72;;
71207;SDS011;58938;49.868;8.646;2022-10-16T00:06:14;4.93;;;2.97;;
71207;SDS011;58938;49.868;8.646;2022-10-16T00:08:41;6.83;;;2.97;;
71207;SDS011;58938;49.868;8.646;2022-10-16T00:11:18;5.63;;;2.95;;
71207;SDS011;58938;49.868;8.646;2022-10-16T00:13:47;7.28;;;3.75;;
71207;SDS011;58938;49.868;8.646;2022-10-16T00:16:15;8.15;;;3.67;;
71207;SDS011;58938;49.868;8.646;2022-10-16T00:18:41;6.30;;;3.20;;
71207;SDS011;58938;49.868;8.646;2022-10-16T00:21:08;6.10;;;3.20;;
71207;SDS011;58938;49.868;8.646;2022-10-16T00:23:38;5.47;;;2.78;;
71207;SDS011;58938;49.868;8.646;2022-10-16T00:26:06;5.30;;;2.85;;
71207;SDS011;58938;49.868;8.646;2022-10-16T00:28:34;5.78;;;3.53;;
71207;SDS011;58938;49.868;8.646;2022-10-16T00:31:04;6.43;;;2.90;;
71207;SDS011;58938;49.868;8.646;2022-10-16T00:33:31;6.33;;;3.10;;
71207;SDS011;58938;49.868;8.646;2022-10-16T00:35:58;5.20;;;2.92;;
71207;SDS011;58938;49.868;8.646;2022-10-16T00:38:24;5.95;;;3.05;;
71207;SDS011;58938;49.868;8.646;2022-10-16T00:40:50;4.65;;;2.50;;
71207;SDS011;58938;49.868;8.646;2022-10-16T00:49:10;5.57;;;2.58;;
71207;SDS011;58938;49.868;8.646;2022-10-16T00:51:42;5.00;;;2.57;;
71207;SDS011;58938;49.868;8.646;2022-10-16T00:54:11;5.68;;;2.42;;
71207;SDS011;58938;49.868;8.646;2022-10-16T00:56:39;5.13;;;2.67;;
71207;SDS011;58938;49.868;8.646;2022-10-16T00:59:07;4.03;;;2.13;;
71207;SDS011;58938;49.868;8.646;2022-10-16T01:01:43;7.70;;;2.40;;
71207;SDS011;58938;49.868;8.646;2022-10-16T01:04:08;3.40;;;1.90;;
71207;SDS011;58938;49.868;8.646;2022-10-16T01:06:45;3.40;;;2.03;;
71207;SDS011;58938;49.868;8.646;2022-10-16T01:14:54;4.25;;;1.90;;
71207;SDS011;58938;49.868;8.646;2022-10-16T01:17:34;6.90;;;1.80;;
71207;SDS011;58938;49.868;8.646;2022-10-16T01:20:17;4.18;;;1.60;;
71207;SDS011;58938;49.868;8.646;2022-10-16T01:22:59;3.58;;;2.00;;
71207;SDS011;58938;49.868;8.646;2022-10-16T01:25:36;4.53;;;1.92;;
71207;SDS011;58938;49.868;8.646;2022-10-16T01:28:21;4.32;;;1.77;;
71207;SDS011;58938;49.868;8.646;2022-10-16T01:31:15;4.37;;;2.20;;
71207;SDS011;58938;49.868;8.646;2022-10-16T01:33:44;3.75;;;1.48;;
71207;SDS011;58938;49.868;8.646;2022-10-16T01:36:13;5.93;;;1.80;;
71207;SDS011;58938;49.868;8.646;2022-10-16T01:38:43;4.97;;;1.70;;
71207;SDS011;58938;49.868;8.646;2022-10-16T01:41:23;4.57;;;1.80;;
71207;SDS011;58938;49.868;8.646;2022-10-16T01:43:56;4.30;;;2.03;;
71207;SDS011;58938;49.868;8.646;2022-10-16T01:46:30;3.70;;;2.08;;
71207;SDS011;58938;49.868;8.646;2022-10-16T01:48:59;4.47;;;2.03;;
71207;SDS011;58938;49.868;8.646;2022-10-16T01:51:26;4.22;;;2.20;;
71207;SDS011;58938;49.868;8.646;2022-10-16T01:53:54;4.72;;;2.17;;
71207;SDS011;58938;49.868;8.646;2022-10-16T01:56:22;5.30;;;2.00;;
71207;SDS011;58938;49.868;8.646;2022-10-16T01:58:53;3.50;;;2.10;;
71207;SDS011;58938;49.868;8.646;2022-10-16T02:01:23;4.15;;;1.98;;
71207;SDS011;58938;49.868;8.646;2022-10-16T02:03:53;4.63;;;2.05;;
71207;SDS011;58938;49.868;8.646;2022-10-16T02:06:21;6.03;;;2.35;;
71207;SDS011;58938;49.868;8.646;2022-10-16T02:08:48;6.10;;;2.33;;
71207;SDS011;58938;49.868;8.646;2022-10-16T02:11:14;5.53;;;2.38;;
71207;SDS011;58938;49.868;8.646;2022-10-16T02:13:50;4.45;;;2.70;;
71207;SDS011;58938;49.868;8.646;2022-10-16T02:16:20;4.40;;;2.10;;
71207;SDS011;58938;49.868;8.646;2022-10-16T02:18:46;9.00;;;3.10;;
71207;SDS011;58938;49.868;8.646;2022-10-16T02:23:50;5.03;;;2.60;;
71207;SDS011;58938;49.868;8.646;2022-10-16T02:26:26;4.95;;;2.70;;
71207;SDS011;58938;49.868;8.646;2022-10-16T02:28:57;5.07;;;2.85;;
71207;SDS011;58938;49.868;8.646;2022-10-16T02:31:30;6.43;;;3.25;;
71207;SDS011;58938;49.868;8.646;2022-10-16T02:33:59;6.72;;;3.30;;
71207;SDS011;58938;49.868;8.646;2022-10-16T02:36:26;6.00;;;3.17;;
71207;SDS011;58938;49.868;8.646;2022-10-16T02:38:52;7.95;;;3.05;;
71207;SDS011;58938;49.868;8.646;2022-10-16T02:41:20;8.00;;;2.88;;
71207;SDS011;58938;49.868;8.646;2022-10-16T02:43:47;5.60;;;3.13;;
71207;SDS011;58938;49.868;8.646;2022-10-16T02:46:12;7.93;;;3.63;;
71207;SDS011;58938;49.868;8.646;2022-10-16T02:48:38;7.63;;;3.87;;
71207;SDS011;58938;49.868;8.646;2022-10-16T02:51:04;8.15;;;3.90;;
71207;SDS011;58938;49.868;8.646;2022-10-16T02:53:30;10.52;;;4.30;;
71207;SDS011;58938;49.868;8.646;2022-10-16T02:55:55;7.50;;;4.33;;
71207;SDS011;58938;49.868;8.646;2022-10-16T02:58:21;6.85;;;3.47;;
71207;SDS011;58938;49.868;8.646;2022-10-16T03:00:46;8.30;;;4.00;;
71207;SDS011;58938;49.868;8.646;2022-10-16T03:03:12;8.70;;;4.27;;
71207;SDS011;58938;49.868;8.646;2022-10-16T03:05:37;8.20;;;4.10;;
71207;SDS011;58938;49.868;8.646;2022-10-16T03:08:03;9.23;;;4.30;;
71207;SDS011;58938;49.868;8.646;2022-10-16T03:10:29;8.63;;;4.43;;
71207;SDS011;58938;49.868;8.646;2022-10-16T03:12:54;12.43;;;3.47;;
71207;SDS011;58938;49.868;8.646;2022-10-16T03:15:20;7.53;;;4.07;;
71207;SDS011;58938;49.868;8.646;2022-10-16T03:17:45;8.83;;;4.07;;
71207;SDS011;58938;49.868;8.646;2022-10-16T03:20:11;6.85;;;3.35;;
71207;SDS011;58938;49.868;8.646;2022-10-16T03:22:36;6.90;;;3.53;;
71207;SDS011;58938;49.868;8.646;2022-10-16T03:25:02;9.60;;;3.85;;
71207;SDS011;58938;49.868;8.646;2022-10-16T03:27:28;9.93;;;4.37;;
71207;SDS011;58938;49.868;8.646;2022-10-16T03:29:53;7.85;;;4.40;;
71207;SDS011;58938;49.868;8.646;2022-10-16T03:32:19;10.80;;;4.80;;
71207;SDS011;58938;49.868;8.646;2022-10-16T03:34:45;9.40;;;4.75;;
71207;SDS011;58938;49.868;8.646;2022-10-16T03:37:11;8.13;;;4.77;;
71207;SDS011;58938;49.868;8.646;2022-10-16T03:39:36;12.23;;;4.80;;
71207;SDS011;58938;49.868;8.646;2022-10-16T03:42:02;7.57;;;4.70;;
71207;SDS011;58938;49.868;8.646;2022-10-16T03:44:27;10.30;;;4.83;;
71207;SDS011;58938;49.868;8.646;2022-10-16T03:46:53;9.70;;;4.90;;
71207;SDS011;58938;49.868;8.646;2022-10-16T03:49:18;8.83;;;4.40;;
71207;SDS011;58938;49.868;8.646;2022-10-16T03:51:44;9.87;;;5.00;;
71207;SDS011;58938;49.868;8.646;2022-10-16T03:54:10;9.00;;;4.60;;
71207;SDS011;58938;49.868;8.646;2022-10-16T03:56:35;10.40;;;5.20;;
71207;SDS011;58938;49.868;8.646;2022-10-16T03:59:01;11.57;;;4.38;;
71207;SDS011;58938;49.868;8.646;2022-10-16T04:01:27;8.33;;;4.70;;
71207;SDS011;58938;49.868;8.646;2022-10-16T04:03:52;12.83;;;4.57;;
71207;SDS011;58938;49.868;8.646;2022-10-16T04:06:18;10.53;;;4.53;;
71207;SDS011;58938;49.868;8.646;2022-10-16T04:08:43;9.10;;;4.37;;
71207;SDS011;58938;49.868;8.646;2022-10-16T04:11:12;9.85;;;5.22;;
71207;SDS011;58938;49.868;8.646;2022-10-16T04:13:37;7.70;;;4.50;;
71207;SDS011;58938;49.868;8.646;2022-10-16T04:16:03;9.13;;;4.60;;
71207;SDS011;58938;49.868;8.646;2022-10-16T04:18:29;7.37;;;4.73;;
71207;SDS011;58938;49.868;8.646;2022-10-16T04:20:54;9.50;;;4.37;;
71207;SDS011;58938;49.868;8.646;2022-10-16T04:23:20;10.07;;;4.63;;
71207;SDS011;58938;49.868;8.646;2022-10-16T04:25:47;11.30;;;5.35;;
71207;SDS011;58938;49.868;8.646;2022-10-16T04:28:13;11.73;;;4.70;;
71207;SDS011;58938;49.868;8.646;2022-10-16T04:30:39;12.55;;;4.63;;
71207;SDS011;58938;49.868;8.646;2022-10-16T04:33:04;8.37;;;5.00;;
71207;SDS011;58938;49.868;8.646;2022-10-16T04:35:30;8.23;;;4.30;;
71207;SDS011;58938;49.868;8.646;2022-10-16T04:37:59;11.35;;;4.78;;
71207;SDS011;58938;49.868;8.646;2022-10-16T04:40:24;11.18;;;5.00;;
71207;SDS011;58938;49.868;8.646;2022-10-16T04:42:50;11.47;;;4.70;;
71207;SDS011;58938;49.868;8.646;2022-10-16T04:45:18;9.53;;;4.87;;
71207;SDS011;58938;49.868;8.646;2022-10-16T04:47:44;9.05;;;4.88;;
71207;SDS011;58938;49.868;8.646;2022-10-16T04:50:09;9.83;;;4.33;;
71207;SDS011;58938;49.868;8.646;2022-10-16T04:52:35;9.38;;;5.07;;
71207;SDS011;58938;49.868;8.646;2022-10-16T04:55:01;8.73;;;5.43;;
71207;SDS011;58938;49.868;8.646;2022-10-16T04:57:28;8.00;;;4.73;;
71207;SDS011;58938;49.868;8.646;2022-10-16T04:59:54;9.68;;;5.22;;
71207;SDS011;58938;49.868;8.646;2022-10-16T05:02:19;9.02;;;4.88;;
71207;SDS011;58938;49.868;8.646;2022-10-16T05:04:45;11.10;;;4.40;;
71207;SDS011;58938;49.868;8.646;2022-10-16T05:07:11;8.67;;;4.53;;
71207;SDS011;58938;49.868;8.646;2022-10-16T05:09:36;13.25;;;5.03;;
71207;SDS011;58938;49.868;8.646;2022-10-16T05:12:02;9.00;;;4.47;;
71207;SDS011;58938;49.868;8.646;2022-10-16T05:14:28;8.65;;;4.75;;
71207;SDS011;58938;49.868;8.646;2022-10-16T05:16:54;11.25;;;5.03;;
71207;SDS011;58938;49.868;8.646;2022-10-16T05:19:20;9.43;;;4.60;;
71207;SDS011;58938;49.868;8.646;2022-10-16T05:21:45;10.63;;;5.18;;
71207;SDS011;58938;49.868;8.646;2022-10-16T05:24:11;9.90;;;4.97;;
71207;SDS011;58938;49.868;8.646;2022-10-16T05:26:37;7.68;;;4.85;;
71207;SDS011;58938;49.868;8.646;2022-10-16T05:29:02;6.87;;;4.63;;
71207;SDS011;58938;49.868;8.646;2022-10-16T05:31:31;9.73;;;5.23;;
71207;SDS011;58938;49.868;8.646;2022-10-16T05:34:00;7.57;;;4.95;;
71207;SDS011;58938;49.868;8.646;2022-10-16T05:36:26;10.18;;;4.82;;
71207;SDS011;58938;49.868;8.646;2022-10-16T05:38:52;9.73;;;4.47;;
71207;SDS011;58938;49.868;8.646;2022-10-16T05:41:19;14.90;;;5.47;;
71207;SDS011;58938;49.868;8.646;2022-10-16T05:43:46;7.43;;;4.27;;
71207;SDS011;58938;49.868;8.646;2022-10-16T05:46:13;8.50;;;4.65;;
71207;SDS011;58938;49.868;8.646;2022-10-16T05:48:39;8.23;;;4.72;;
71207;SDS011;58938;49.868;8.646;2022-10-16T05:51:05;8.80;;;4.40;;
71207;SDS011;58938;49.868;8.646;2022-10-16T05:53:35;8.85;;;4.55;;
71207;SDS011;58938;49.868;8.646;2022-10-16T05:56:02;9.07;;;4.82;;
71207;SDS011;58938;49.868;8.646;2022-10-16T05:58:29;7.80;;;4.38;;
71207;SDS011;58938;49.868;8.646;2022-10-16T06:01:03;9.35;;;4.40;;
71207;SDS011;58938;49.868;8.646;2022-10-16T06:03:31;8.50;;;4.10;;
71207;SDS011;58938;49.868;8.646;2022-10-16T06:05:57;10.20;;;4.40;;
71207;SDS011;58938;49.868;8.646;2022-10-16T06:08:23;8.57;;;5.18;;
71207;SDS011;58938;49.868;8.646;2022-10-16T06:10:49;8.10;;;4.63;;
71207;SDS011;58938;49.868;8.646;2022-10-16T06:13:25;8.52;;;4.70;;
71207;SDS011;58938;49.868;8.646;2022-10-16T06:15:51;8.67;;;3.97;;
71207;SDS011;58938;49.868;8.646;2022-10-16T06:18:16;7.70;;;4.15;;
71207;SDS011;58938;49.868;8.646;2022-10-16T06:20:42;10.27;;;4.23;;
71207;SDS011;58938;49.868;8.646;2022-10-16T06:23:08;9.50;;;4.20;;
71207;SDS011;58938;49.868;8.646;2022-10-16T06:25:33;7.22;;;3.97;;
71207;SDS011;58938;49.868;8.646;2022-10-16T06:27:59;7.93;;;4.50;;
71207;SDS011;58938;49.868;8.646;2022-10-16T06:30:24;8.43;;;4.77;;
71207;SDS011;58938;49.868;8.646;2022-10-16T06:32:50;8.88;;;3.72;;
71207;SDS011;58938;49.868;8.646;2022-10-16T06:35:15;9.17;;;3.73;;
71207;SDS011;58938;49.868;8.646;2022-10-16T06:37:41;7.18;;;3.67;;
71207;SDS011;58938;49.868;8.646;2022-10-16T06:40:07;8.73;;;4.03;;
71207;SDS011;58938;49.868;8.646;2022-10-16T06:42:32;8.03;;;3.50;;
71207;SDS011;58938;49.868;8.646;2022-10-16T06:44:58;6.68;;;3.70;;
71207;SDS011;58938;49.868;8.646;2022-10-16T06:47:23;6.83;;;3.50;;
71207;SDS011;58938;49.868;8.646;2022-10-16T06:49:49;7.33;;;3.53;;
71207;SDS011;58938;49.868;8.646;2022-10-16T06:52:15;7.95;;;3.63;;
71207;SDS011;58938;49.868;8.646;2022-10-16T06:54:40;8.00;;;3.57;;
71207;SDS011;58938;49.868;8.646;2022-10-16T06:57:06;7.47;;;3.47;;
71207;SDS011;58938;49.868;8.646;2022-10-16T06:59:31;9.70;;;3.63;;
71207;SDS011;58938;49.868;8.646;2022-10-16T07:01:57;8.47;;;3.73;;
71207;SDS011;58938;49.868;8.646;2022-10-16T07:04:22;8.17;;;3.53;;
71207;SDS011;58938;49.868;8.646;2022-10-16T07:06:48;9.18;;;4.30;;
71207;SDS011;58938;49.868;8.646;2022-10-16T07:09:13;6.60;;;3.43;;
71207;SDS011;58938;49.868;8.646;2022-10-16T07:11:39;7.40;;;3.37;;
71207;SDS011;58938;49.868;8.646;2022-10-16T07:14:11;8.82;;;3.42;;
71207;SDS011;58938;49.868;8.646;2022-10-16T07:16:44;5.68;;;3.35;;
71207;SDS011;58938;49.868;8.646;2022-10-16T07:19:10;6.47;;;2.85;;
71207;SDS011;58938;49.868;8.646;2022-10-16T07:21:38;6.03;;;3.40;;
71207;SDS011;58938;49.868;8.646;2022-10-16T07:24:05;6.17;;;3.30;;
71207;SDS011;58938;49.868;8.646;2022-10-16T07:26:33;7.00;;;3.00;;
71207;SDS011;58938;49.868;8.646;2022-10-16T07:29:00;5.82;;;3.30;;
71207;SDS011;58938;49.868;8.646;2022-10-16T07:31:25;9.53;;;2.93;;
71207;SDS011;58938;49.868;8.646;2022-10-16T07:33:52;6.80;;;3.67;;
71207;SDS011;58938;49.868;8.646;2022-10-16T07:36:18;6.35;;;3.30;;
71207;SDS011;58938;49.868;8.646;2022-10-16T07:38:45;11.23;;;3.43;;
71207;SDS011;58938;49.868;8.646;2022-10-16T07:41:12;7.20;;;3.28;;
71207;SDS011;58938;49.868;8.646;2022-10-16T07:43:39;12.48;;;3.47;;
71207;SDS011;58938;49.868;8.646;2022-10-16T07:46:09;10.48;;;3.50;;
71207;SDS011;58938;49.868;8.646;2022-10-16T07:48:35;6.27;;;3.33;;
71207;SDS011;58938;49.868;8.646;2022-10-16T07:51:01;7.50;;;3.60;;
71207;SDS011;58938;49.868;8.646;2022-10-16T07:53:28;8.33;;;3.40;;
71207;SDS011;58938;49.868;8.646;2022-10-16T07:56:03;7.75;;;3.35;;
71207;SDS011;58938;49.868;8.646;2022-10-16T07:58:31;7.03;;;3.38;;
71207;SDS011;58938;49.868;8.646;2022-10-16T08:00:58;7.20;;;3.17;;
71207;SDS011;58938;49.868;8.646;2022-10-16T08:03:27;6.53;;;3.30;;
71207;SDS011;58938;49.868;8.646;2022-10-16T08:05:52;7.68;;;3.35;;
71207;SDS011;58938;49.868;8.646;2022-10-16T08:08:18;6.53;;;3.13;;
71207;SDS011;58938;49.868;8.646;2022-10-16T08:10:44;7.63;;;3.47;;
71207;SDS011;58938;49.868;8.646;2022-10-16T08:13:10;8.23;;;3.40;;
71207;SDS011;58938;49.868;8.646;2022-10-16T08:15:35;5.40;;;3.30;;
71207;SDS011;58938;49.868;8.646;2022-10-16T08:18:02;7.83;;;3.57;;
71207;SDS011;58938;49.868;8.646;2022-10-16T08:20:29;8.18;;;3.42;;
71207;SDS011;58938;49.868;8.646;2022-10-16T08:22:56;6.40;;;3.08;;
71207;SDS011;58938;49.868;8.646;2022-10-16T08:25:22;5.93;;;3.50;;
71207;SDS011;58938;49.868;8.646;2022-10-16T08:27:48;7.60;;;3.42;;
71207;SDS011;58938;49.868;8.646;2022-10-16T08:30:15;6.88;;;3.13;;
71207;SDS011;58938;49.868;8.646;2022-10-16T08:32:41;7.47;;;3.55;;
71207;SDS011;58938;49.868;8.646;2022-10-16T08:35:08;9.73;;;3.50;;
71207;SDS011;58938;49.868;8.646;2022-10-16T08:37:37;6.00;;;3.55;;
71207;SDS011;58938;49.868;8.646;2022-10-16T08:40:04;6.60;;;3.58;;
71207;SDS011;58938;49.868;8.646;2022-10-16T08:50:43;7.35;;;4.07;;
71207;SDS011;58938;49.868;8.646;2022-10-16T08:53:18;8.35;;;3.83;;
71207;SDS011;58938;49.868;8.646;2022-10-16T08:55:50;6.93;;;3.85;;
71207;SDS011;58938;49.868;8.646;2022-10-16T08:58:20;6.47;;;4.17;;
71207;SDS011;58938;49.868;8.646;2022-10-16T09:00:53;8.43;;;4.25;;
71207;SDS011;58938;49.868;8.646;2022-10-16T09:08:30;9.17;;;4.43;;
71207;SDS011;58938;49.868;8.646;2022-10-16T09:11:10;8.32;;;4.75;;
71207;SDS011;58938;49.868;8.646;2022-10-16T09:14:06;10.18;;;4.45;;
71207;SDS011;58938;49.868;8.646;2022-10-16T09:16:41;8.70;;;4.03;;
71207;SDS011;58938;49.868;8.646;2022-10-16T09:21:46;9.05;;;4.60;;
71207;SDS011;58938;49.868;8.646;2022-10-16T09:24:16;8.63;;;4.60;;
71207;SDS011;58938;49.868;8.646;2022-10-16T09:26:44;7.65;;;4.28;;
71207;SDS011;58938;49.868;8.646;2022-10-16T09:29:12;8.70;;;4.40;;
71207;SDS011;58938;49.868;8.646;2022-10-16T09:31:38;9.35;;;4.32;;
71207;SDS011;58938;49.868;8.646;2022-10-16T09:34:05;7.75;;;4.63;;
71207;SDS011;58938;49.868;8.646;2022-10-16T09:36:40;8.50;;;4.40;;
71207;SDS011;58938;49.868;8.646;2022-10-16T09:39:10;8.68;;;5.13;;
71207;SDS011;58938;49.868;8.646;2022-10-16T09:41:41;11.50;;;4.73;;
71207;SDS011;58938;49.868;8.646;2022-10-16T09:44:17;14.50;;;4.80;;
71207;SDS011;58938;49.868;8.646;2022-10-16T09:47:04;7.70;;;4.85;;
71207;SDS011;58938;49.868;8.646;2022-10-16T09:49:36;9.05;;;4.80;;
71207;SDS011;58938;49.868;8.646;2022-10-16T09:52:03;9.27;;;4.57;;
71207;SDS011;58938;49.868;8.646;2022-10-16T09:54:31;8.32;;;4.45;;
71207;SDS011;58938;49.868;8.646;2022-10-16T09:57:06;8.52;;;4.97;;
71207;SDS011;58938;49.868;8.646;2022-10-16T09:59:45;13.63;;;5.38;;
71207;SDS011;58938;49.868;8.646;2022-10-16T10:02:12;11.90;;;5.50;;
71207;SDS011;58938;49.868;8.646;2022-10-16T10:04:47;8.65;;;4.82;;
71207;SDS011;58938;49.868;8.646;2022-10-16T10:07:25;8.55;;;4.65;;
71207;SDS011;58938;49.868;8.646;2022-10-16T10:09:53;7.60;;;4.53;;
71207;SDS011;58938;49.868;8.646;2022-10-16T10:12:25;7.80;;;4.10;;
71207;SDS011;58938;49.868;8.646;2022-10-16T10:14:54;6.20;;;3.93;;
71207;SDS011;58938;49.868;8.646;2022-10-16T10:17:26;7.70;;;4.03;;
71207;SDS011;58938;49.868;8.646;2022-10-16T10:19:53;6.15;;;3.40;;
71207;SDS011;58938;49.868;8.646;2022-10-16T10:22:29;7.57;;;3.53;;
71207;SDS011;58938;49.868;8.646;2022-10-16T10:25:01;8.05;;;4.00;;
71207;SDS011;58938;49.868;8.646;2022-10-16T10:30:35;8.43;;;4.35;;
71207;SDS011;58938;49.868;8.646;2022-10-16T10:36:34;6.63;;;4.05;;
71207;SDS011;58938;49.868;8.646;2022-10-16T10:44:46;6.60;;;3.53;;
71207;SDS011;58938;49.868;8.646;2022-10-16T10:55:33;11.93;;;4.40;;
71207;SDS011;58938;49.868;8.646;2022-10-16T10:58:10;7.20;;;4.03;;
71207;SDS011;58938;49.868;8.646;2022-10-16T11:00:47;5.65;;;3.35;;
71207;SDS011;58938;49.868;8.646;2022-10-16T11:06:04;6.28;;;3.30;;
71207;SDS011;58938;49.868;8.646;2022-10-16T11:08:46;5.83;;;3.80;;
71207;SDS011;58938;49.868;8.646;2022-10-16T11:11:35;6.00;;;3.05;;
71207;SDS011;58938;49.868;8.646;2022-10-16T11:14:12;8.63;;;3.55;;
71207;SDS011;58938;49.868;8.646;2022-10-16T11:19:14;6.70;;;3.38;;
71207;SDS011;58938;49.868;8.646;2022-10-16T11:21:54;5.83;;;3.30;;
71207;SDS011;58938;49.868;8.646;2022-10-16T11:27:21;6.93;;;3.70;;
71207;SDS011;58938;49.868;8.646;2022-10-16T11:29:55;6.03;;;3.10;;
71207;SDS011;58938;49.868;8.646;2022-10-16T11:32:35;8.20;;;4.50;;
71207;SDS011;58938;49.868;8.646;2022-10-16T11:35:25;7.03;;;4.10;;
71207;SDS011;58938;49.868;8.646;2022-10-16T11:38:03;10.70;;;3.63;;
71207;SDS011;58938;49.868;8.646;2022-10-16T11:40:37;5.43;;;3.15;;
71207;SDS011;58938;49.868;8.646;2022-10-16T11:43:10;6.20;;;3.35;;
71207;SDS011;58938;49.868;8.646;2022-10-16T11:46:17;6.03;;;3.10;;
71207;SDS011;58938;49.868;8.646;2022-10-16T11:48:57;4.87;;;3.00;;
71207;SDS011;58938;49.868;8.646;2022-10-16T11:57:22;5.32;;;3.05;;
71207;SDS011;58938;49.868;8.646;2022-10-16T11:59:59;4.85;;;3.15;;
71207;SDS011;58938;49.868;8.646;2022-10-16T12:07:38;6.47;;;4.18;;
71207;SDS011;58938;49.868;8.646;2022-10-16T12:10:21;5.80;;;3.15;;
71207;SDS011;58938;49.868;8.646;2022-10-16T12:12:52;6.80;;;3.65;;
71207;SDS011;58938;49.868;8.646;2022-10-16T12:15:21;7.40;;;3.97;;
71207;SDS011;58938;49.868;8.646;2022-10-16T12:17:48;5.93;;;3.50;;
71207;SDS011;58938;49.868;8.646;2022-10-16T12:23:02;15.00;;;3.97;;
71207;SDS011;58938;49.868;8.646;2022-10-16T12:25:31;5.80;;;3.20;;
71207;SDS011;58938;49.868;8.646;2022-10-16T12:30:33;5.75;;;3.22;;
71207;SDS011;58938;49.868;8.646;2022-10-16T12:33:05;5.05;;;3.25;;
71207;SDS011;58938;49.868;8.646;2022-10-16T12:35:45;17.53;;;4.57;;
71207;SDS011;58938;49.868;8.646;2022-10-16T12:38:36;6.00;;;3.30;;
71207;SDS011;58938;49.868;8.646;2022-10-16T12:41:06;5.80;;;3.75;;
71207;SDS011;58938;49.868;8.646;2022-10-16T12:43:40;5.78;;;3.78;;
71207;SDS011;58938;49.868;8.646;2022-10-16T12:48:39;6.00;;;3.80;;
71207;SDS011;58938;49.868;8.646;2022-10-16T12:51:42;6.50;;;3.30;;
71207;SDS011;58938;49.868;8.646;2022-10-16T12:54:03;6.43;;;3.50;;
71207;SDS011;58938;49.868;8.646;2022-10-16T12:56:38;5.55;;;3.38;;
71207;SDS011;58938;49.868;8.646;2022-10-16T12:59:27;7.55;;;3.90;;
71207;SDS011;58938;49.868;8.646;2022-10-16T13:05:14;6.45;;;3.58;;
71207;SDS011;58938;49.868;8.646;2022-10-16T13:22:05;6.43;;;3.85;;
71207;SDS011;58938;49.868;8.646;2022-10-16T13:27:55;6.53;;;4.70;;
71207;SDS011;58938;49.868;8.646;2022-10-16T13:30:28;6.47;;;4.17;;
71207;SDS011;58938;49.868;8.646;2022-10-16T13:33:12;6.07;;;4.13;;
71207;SDS011;58938;49.868;8.646;2022-10-16T13:35:48;6.63;;;3.97;;
71207;SDS011;58938;49.868;8.646;2022-10-16T13:40:56;6.43;;;3.92;;
71207;SDS011;58938;49.868;8.646;2022-10-16T13:43:56;7.60;;;4.20;;
71207;SDS011;58938;49.868;8.646;2022-10-16T13:46:18;8.93;;;4.22;;
71207;SDS011;58938;49.868;8.646;2022-10-16T13:49:04;8.07;;;4.10;;
71207;SDS011;58938;49.868;8.646;2022-10-16T13:51:36;6.03;;;4.28;;
71207;SDS011;58938;49.868;8.646;2022-10-16T13:54:01;7.63;;;3.90;;
71207;SDS011;58938;49.868;8.646;2022-10-16T13:56:28;10.18;;;4.20;;
71207;SDS011;58938;49.868;8.646;2022-10-16T13:58:59;6.83;;;4.47;;
71207;SDS011;58938;49.868;8.646;2022-10-16T14:01:41;7.53;;;4.22;;
71207;SDS011;58938;49.868;8.646;2022-10-16T14:04:09;10.43;;;5.05;;
71207;SDS011;58938;49.868;8.646;2022-10-16T14:06:36;7.28;;;3.53;;
71207;SDS011;58938;49.868;8.646;2022-10-16T14:09:07;6.18;;;3.75;;
71207;SDS011;58938;49.868;8.646;2022-10-16T14:11:44;8.93;;;4.50;;
71207;SDS011;58938;49.868;8.646;2022-10-16T14:14:13;7.38;;;4.35;;
71207;SDS011;58938;49.868;8.646;2022-10-16T14:16:40;7.60;;;5.00;;
71207;SDS011;58938;49.868;8.646;2022-10-16T14:19:44;6.93;;;4.88;;
71207;SDS011;58938;49.868;8.646;2022-10-16T14:21:59;8.23;;;4.78;;
71207;SDS011;58938;49.868;8.646;2022-10-16T14:26:57;9.13;;;4.65;;
71207;SDS011;58938;49.868;8.646;2022-10-16T14:29:23;6.25;;;3.67;;
71207;SDS011;58938;49.868;8.646;2022-10-16T14:31:57;8.60;;;4.45;;
71207;SDS011;58938;49.868;8.646;2022-10-16T14:34:25;6.77;;;4.33;;
71207;SDS011;58938;49.868;8.646;2022-10-16T14:36:54;9.20;;;4.15;;
71207;SDS011;58938;49.868;8.646;2022-10-16T14:39:21;6.68;;;4.25;;
71207;SDS011;58938;49.868;8.646;2022-10-16T14:41:48;10.85;;;4.25;;
71207;SDS011;58938;49.868;8.646;2022-10-16T14:44:17;6.57;;;4.13;;
71207;SDS011;58938;49.868;8.646;2022-10-16T14:46:43;8.50;;;5.43;;
71207;SDS011;58938;49.868;8.646;2022-10-16T14:51:36;7.60;;;4.40;;
71207;SDS011;58938;49.868;8.646;2022-10-16T14:54:03;6.27;;;3.80;;
71207;SDS011;58938;49.868;8.646;2022-10-16T14:56:30;8.93;;;4.22;;
71207;SDS011;58938;49.868;8.646;2022-10-16T14:58:59;7.43;;;4.07;;
71207;SDS011;58938;49.868;8.646;2022-10-16T15:01:26;8.65;;;3.83;;
71207;SDS011;58938;49.868;8.646;2022-10-16T15:03:52;7.87;;;3.83;;
71207;SDS011;58938;49.868;8.646;2022-10-16T15:06:19;6.63;;;4.18;;
71207;SDS011;58938;49.868;8.646;2022-10-16T15:08:45;11.50;;;3.90;;
71207;SDS011;58938;49.868;8.646;2022-10-16T15:11:15;8.50;;;4.10;;
71207;SDS011;58938;49.868;8.646;2022-10-16T15:13:42;8.13;;;4.22;;
71207;SDS011;58938;49.868;8.646;2022-10-16T15:16:11;7.13;;;3.83;;
71207;SDS011;58938;49.868;8.646;2022-10-16T15:18:38;6.95;;;3.88;;
71207;SDS011;58938;49.868;8.646;2022-10-16T15:21:04;8.65;;;3.72;;
71207;SDS011;58938;49.868;8.646;2022-10-16T15:23:30;8.90;;;3.90;;
71207;SDS011;58938;49.868;8.646;2022-10-16T15:25:55;10.37;;;3.83;;
71207;SDS011;58938;49.868;8.646;2022-10-16T15:28:22;8.10;;;4.32;;
71207;SDS011;58938;49.868;8.646;2022-10-16T15:30:49;8.85;;;4.00;;
71207;SDS011;58938;49.868;8.646;2022-10-16T15:33:17;9.23;;;4.40;;
71207;SDS011;58938;49.868;8.646;2022-10-16T15:35:47;7.18;;;3.97;;
71207;SDS011;58938;49.868;8.646;2022-10-16T15:38:13;6.90;;;4.47;;
71207;SDS011;58938;49.868;8.646;2022-10-16T15:40:40;7.70;;;4.28;;
71207;SDS011;58938;49.868;8.646;2022-10-16T15:43:06;6.80;;;4.40;;
71207;SDS011;58938;49.868;8.646;2022-10-16T15:45:32;7.60;;;4.87;;
71207;SDS011;58938;49.868;8.646;2022-10-16T15:47:57;7.57;;;4.10;;
71207;SDS011;58938;49.868;8.646;2022-10-16T15:50:23;8.23;;;3.87;;
71207;SDS011;58938;49.868;8.646;2022-10-16T15:52:49;8.80;;;3.75;;
71207;SDS011;58938;49.868;8.646;2022-10-16T15:55:16;8.93;;;4.40;;
71207;SDS011;58938;49.868;8.646;2022-10-16T15:57:43;7.90;;;4.35;;
71207;SDS011;58938;49.868;8.646;2022-10-16T16:00:14;7.67;;;4.40;;
71207;SDS011;58938;49.868;8.646;2022-10-16T16:02:43;12.70;;;4.60;;
71207;SDS011;58938;49.868;8.646;2022-10-16T16:05:14;10.20;;;5.00;;
71207;SDS011;58938;49.868;8.646;2022-10-16T16:07:39;8.57;;;4.43;;
71207;SDS011;58938;49.868;8.646;2022-10-16T16:10:06;8.57;;;4.97;;
71207;SDS011;58938;49.868;8.646;2022-10-16T16:12:34;8.02;;;4.40;;
71207;SDS011;58938;49.868;8.646;2022-10-16T16:15:00;11.15;;;4.85;;
71207;SDS011;58938;49.868;8.646;2022-10-16T16:17:26;8.07;;;4.90;;
71207;SDS011;58938;49.868;8.646;2022-10-16T16:19:51;7.60;;;5.50;;
71207;SDS011;58938;49.868;8.646;2022-10-16T16:22:17;10.93;;;5.13;;
71207;SDS011;58938;49.868;8.646;2022-10-16T16:24:45;8.52;;;5.13;;
71207;SDS011;58938;49.868;8.646;2022-10-16T16:27:10;9.67;;;4.77;;
71207;SDS011;58938;49.868;8.646;2022-10-16T16:29:36;8.77;;;4.70;;
71207;SDS011;58938;49.868;8.646;2022-10-16T16:32:02;8.48;;;4.53;;
71207;SDS011;58938;49.868;8.646;2022-10-16T16:34:27;8.07;;;5.57;;
71207;SDS011;58938;49.868;8.646;2022-10-16T16:36:54;8.82;;;5.43;;
71207;SDS011;58938;49.868;8.646;2022-10-16T16:39:20;7.85;;;4.80;;
71207;SDS011;58938;49.868;8.646;2022-10-16T16:41:46;11.70;;;5.33;;
71207;SDS011;58938;49.868;8.646;2022-10-16T16:44:12;12.18;;;5.75;;